Ah, Sweden

7:18 PM CET on December 07, 2016 (GMT +0100)
Blåmesvägen | | Change Station

Elev -10000 ft 62.41 °N, 17.32 °E | Updated 6 minutes ago

Light Snow
Light Snow
30.7 °F
Feels Like 31 °F
N
0.6
Wind Variable Wind from NW
Gusts 1.9 mph

Today
High -- | Low -- °F
--% Chance of Precip.
Yesterday
High -- | Low -- °F
Precip. -- in
Pressure 29.62 in
Visibility 6.2 miles
Clouds Overcast 3500 ft
Windchill 31 °F
Dew Point 26 °F
Humidity 84%
Rainfall 0.00 in
Snow Depth Not available.
9:00 AM 2:24 PM
First Quarter, 54% visible
METAR ESNN 071750Z 00000KT 9999 -SN OVC035 M02/M03 Q1003 R16/79//47
Pressure 29.62 in
Visibility 6.2 miles
Clouds Overcast 3500 ft
Windchill 31 °F
Dew Point 26 °F
Humidity 84%
Rainfall 0.00 in
Snow Depth Not available.
9:00 AM 2:24 PM
First Quarter, 54% visible
METAR ESNN 071750Z 00000KT 9999 -SN OVC035 M02/M03 Q1003 R16/79//47

10-Day Weather Forecast

×

Almanac

Astronomy

Dec. 07, 2016 Rise Set
Actual Time
Civil Twilight
Nautical Twilight
Astronomical Twilight
Moon
Length of Visible Light
Length of Day
Tomorrow will be .
, % of the Moon is Illuminated

Today's Extremes

Country Highs Country Lows

Community

WunderPhotos

Upload Photos

1,956,157 photos uploaded!

WunderBlog® & News

Nearby

Air Quality

  Air Quality AQ Index Pollutant
Not available.

Snow Depth

Station Depth Elevation

Earthquake Activity

City Distance Mag. Time & Date
Minimum magnitude displayed is 2.5.

Coastal Water Temperatures

Place Temperature

Stations

Nearby Weather Stations

Station Location Temp. Windchill Dew Point Humidity Wind Precip. Elev Updated Type